sensor_id;sensor_type;location;lat;lon;timestamp;pressure;altitude;pressure_sealevel;temperature;humidity
69879;BME280;57161;43.136;24.706;2023-02-13T00:00:16;101207.44;;;1.89;72.62
69879;BME280;57161;43.136;24.706;2023-02-13T00:02:42;101198.28;;;1.92;72.15
69879;BME280;57161;43.136;24.706;2023-02-13T00:05:08;101215.94;;;1.94;72.27
69879;BME280;57161;43.136;24.706;2023-02-13T00:07:33;101209.25;;;1.95;72.42
69879;BME280;57161;43.136;24.706;2023-02-13T00:09:59;101188.53;;;1.74;72.10
69879;BME280;57161;43.136;24.706;2023-02-13T00:12:24;101194.03;;;1.74;72.12
69879;BME280;57161;43.136;24.706;2023-02-13T00:14:50;101214.59;;;1.86;72.23
69879;BME280;57161;43.136;24.706;2023-02-13T00:17:15;101199.44;;;1.78;72.53
69879;BME280;57161;43.136;24.706;2023-02-13T00:19:41;101210.31;;;1.85;72.38
69879;BME280;57161;43.136;24.706;2023-02-13T00:22:07;101212.06;;;1.92;72.24
69879;BME280;57161;43.136;24.706;2023-02-13T00:24:33;101169.88;;;1.66;72.33
69879;BME280;57161;43.136;24.706;2023-02-13T00:26:59;101161.88;;;1.55;72.30
69879;BME280;57161;43.136;24.706;2023-02-13T00:29:24;101215.16;;;1.94;72.20
69879;BME280;57161;43.136;24.706;2023-02-13T00:31:50;101191.19;;;1.78;72.21
69879;BME280;57161;43.136;24.706;2023-02-13T00:34:15;101219.41;;;1.98;72.17
69879;BME280;57161;43.136;24.706;2023-02-13T00:36:41;101188.19;;;1.72;72.09
69879;BME280;57161;43.136;24.706;2023-02-13T00:39:07;101224.75;;;1.89;72.26
69879;BME280;57161;43.136;24.706;2023-02-13T00:41:35;101222.22;;;1.95;72.22
69879;BME280;57161;43.136;24.706;2023-02-13T00:44:00;101215.16;;;1.94;72.30
69879;BME280;57161;43.136;24.706;2023-02-13T00:46:26;101201.06;;;1.92;72.29
69879;BME280;57161;43.136;24.706;2023-02-13T00:48:51;101204.91;;;1.94;72.18
69879;BME280;57161;43.136;24.706;2023-02-13T00:51:17;101206.91;;;1.94;72.20
69879;BME280;57161;43.136;24.706;2023-02-13T00:53:42;101215.16;;;1.94;72.36
69879;BME280;57161;43.136;24.706;2023-02-13T00:56:08;101230.09;;;1.96;72.64
69879;BME280;57161;43.136;24.706;2023-02-13T00:58:33;101185.09;;;1.70;72.60
69879;BME280;57161;43.136;24.706;2023-02-13T01:00:59;101215.00;;;2.01;72.43
69879;BME280;57161;43.136;24.706;2023-02-13T01:03:26;101221.28;;;2.01;72.04
69879;BME280;57161;43.136;24.706;2023-02-13T01:05:52;101218.38;;;1.92;72.43
69879;BME280;57161;43.136;24.706;2023-02-13T01:08:18;101217.59;;;1.92;72.41
69879;BME280;57161;43.136;24.706;2023-02-13T01:10:45;101223.53;;;1.90;72.20
69879;BME280;57161;43.136;24.706;2023-02-13T01:13:12;101223.31;;;1.85;72.13
69879;BME280;57161;43.136;24.706;2023-02-13T01:15:38;101186.41;;;1.66;72.15
69879;BME280;57161;43.136;24.706;2023-02-13T01:18:04;101210.06;;;1.79;72.14
69879;BME280;57161;43.136;24.706;2023-02-13T01:20:30;101228.63;;;1.92;72.28
69879;BME280;57161;43.136;24.706;2023-02-13T01:22:56;101176.84;;;1.70;72.06
69879;BME280;57161;43.136;24.706;2023-02-13T01:25:22;101220.94;;;1.99;72.13
69879;BME280;57161;43.136;24.706;2023-02-13T01:27:48;101222.06;;;2.02;71.96
69879;BME280;57161;43.136;24.706;2023-02-13T01:30:17;101219.53;;;2.07;71.97
69879;BME280;57161;43.136;24.706;2023-02-13T01:32:46;101219.97;;;2.06;71.75
69879;BME280;57161;43.136;24.706;2023-02-13T01:35:12;101175.41;;;1.78;71.58
69879;BME280;57161;43.136;24.706;2023-02-13T01:37:38;101227.91;;;2.04;71.86
69879;BME280;57161;43.136;24.706;2023-02-13T01:40:05;101227.56;;;2.02;71.70
69879;BME280;57161;43.136;24.706;2023-02-13T01:42:33;101169.53;;;1.64;72.01
69879;BME280;57161;43.136;24.706;2023-02-13T01:45:26;101209.31;;;1.92;71.88
69879;BME280;57161;43.136;24.706;2023-02-13T01:47:53;101222.06;;;2.02;71.79
69879;BME280;57161;43.136;24.706;2023-02-13T01:50:24;101216.53;;;2.02;72.23
69879;BME280;57161;43.136;24.706;2023-02-13T01:52:56;101208.31;;;1.86;72.16
69879;BME280;57161;43.136;24.706;2023-02-13T01:55:25;101204.47;;;1.83;71.95
69879;BME280;57161;43.136;24.706;2023-02-13T01:57:59;101210.19;;;1.89;72.17
69879;BME280;57161;43.136;24.706;2023-02-13T02:00:27;101210.75;;;1.84;72.33
69879;BME280;57161;43.136;24.706;2023-02-13T02:02:58;101210.44;;;1.65;73.17
69879;BME280;57161;43.136;24.706;2023-02-13T02:05:29;101156.78;;;1.25;73.79
69879;BME280;57161;43.136;24.706;2023-02-13T02:07:57;101197.19;;;1.60;73.53
69879;BME280;57161;43.136;24.706;2023-02-13T02:10:24;101198.91;;;1.54;73.20
69879;BME280;57161;43.136;24.706;2023-02-13T02:13:19;101162.03;;;1.35;73.12
69879;BME280;57161;43.136;24.706;2023-02-13T02:15:47;101215.63;;;1.63;73.26
69879;BME280;57161;43.136;24.706;2023-02-13T02:18:17;101196.84;;;1.58;73.07
69879;BME280;57161;43.136;24.706;2023-02-13T02:23:52;101210.19;;;1.43;73.35
69879;BME280;57161;43.136;24.706;2023-02-13T02:26:48;101211.50;;;1.39;73.41
69879;BME280;57161;43.136;24.706;2023-02-13T02:32:42;101162.97;;;0.96;73.73
69879;BME280;57161;43.136;24.706;2023-02-13T02:46:19;101197.06;;;1.02;73.87
69879;BME280;57161;43.136;24.706;2023-02-13T02:48:58;101198.88;;;1.09;74.18
69879;BME280;57161;43.136;24.706;2023-02-13T02:52:04;101203.16;;;1.10;74.08
69879;BME280;57161;43.136;24.706;2023-02-13T02:54:39;101179.16;;;0.94;74.19
69879;BME280;57161;43.136;24.706;2023-02-13T02:57:32;101190.88;;;0.98;74.19
69879;BME280;57161;43.136;24.706;2023-02-13T03:00:18;101183.75;;;1.01;74.13
69879;BME280;57161;43.136;24.706;2023-02-13T03:03:23;101178.28;;;0.97;73.91
69879;BME280;57161;43.136;24.706;2023-02-13T03:06:16;101187.09;;;1.08;73.98
69879;BME280;57161;43.136;24.706;2023-02-13T03:08:46;101176.69;;;1.00;73.95
69879;BME280;57161;43.136;24.706;2023-02-13T03:11:36;101195.00;;;1.06;74.05
69879;BME280;57161;43.136;24.706;2023-02-13T03:14:21;101198.28;;;1.01;74.20
69879;BME280;57161;43.136;24.706;2023-02-13T03:16:50;101210.66;;;0.93;75.12
69879;BME280;57161;43.136;24.706;2023-02-13T03:31:23;101204.22;;;0.83;74.48
69879;BME280;57161;43.136;24.706;2023-02-13T03:39:22;101198.16;;;0.72;74.44
69879;BME280;57161;43.136;24.706;2023-02-13T03:41:59;101202.53;;;0.70;74.19
69879;BME280;57161;43.136;24.706;2023-02-13T03:44:43;101203.84;;;0.65;74.26
69879;BME280;57161;43.136;24.706;2023-02-13T03:47:13;101205.09;;;0.60;74.35
69879;BME280;57161;43.136;24.706;2023-02-13T03:49:49;101207.50;;;0.58;73.97
69879;BME280;57161;43.136;24.706;2023-02-13T03:55:04;101186.81;;;0.34;75.03
69879;BME280;57161;43.136;24.706;2023-02-13T03:57:52;101199.63;;;0.41;75.60
69879;BME280;57161;43.136;24.706;2023-02-13T04:00:41;101198.00;;;0.43;75.78
69879;BME280;57161;43.136;24.706;2023-02-13T04:03:23;101186.81;;;0.34;75.65
69879;BME280;57161;43.136;24.706;2023-02-13T04:06:05;101206.78;;;0.38;75.69
69879;BME280;57161;43.136;24.706;2023-02-13T04:08:33;101198.09;;;0.40;75.44
69879;BME280;57161;43.136;24.706;2023-02-13T04:14:12;101211.34;;;0.45;75.74
69879;BME280;57161;43.136;24.706;2023-02-13T04:17:13;101206.91;;;0.51;75.25
69879;BME280;57161;43.136;24.706;2023-02-13T04:19:44;101151.50;;;0.13;74.60
69879;BME280;57161;43.136;24.706;2023-02-13T04:22:12;101198.09;;;0.40;74.03
69879;BME280;57161;43.136;24.706;2023-02-13T04:24:39;101199.03;;;0.33;74.62
69879;BME280;57161;43.136;24.706;2023-02-13T04:27:04;101218.88;;;0.41;74.88
69879;BME280;57161;43.136;24.706;2023-02-13T04:29:30;101189.72;;;0.27;74.81
69879;BME280;57161;43.136;24.706;2023-02-13T04:31:55;101211.41;;;0.41;74.14
69879;BME280;57161;43.136;24.706;2023-02-13T04:34:21;101216.06;;;0.44;74.18
69879;BME280;57161;43.136;24.706;2023-02-13T04:36:47;101225.09;;;0.45;74.40
69879;BME280;57161;43.136;24.706;2023-02-13T04:39:13;101179.94;;;0.06;74.97
69879;BME280;57161;43.136;24.706;2023-02-13T04:41:38;101226.94;;;0.32;75.41
69879;BME280;57161;43.136;24.706;2023-02-13T04:44:04;101214.75;;;0.33;75.15
69879;BME280;57161;43.136;24.706;2023-02-13T04:46:29;101204.41;;;0.20;74.59
69879;BME280;57161;43.136;24.706;2023-02-13T04:48:55;101218.84;;;0.24;74.55
69879;BME280;57161;43.136;24.706;2023-02-13T04:51:20;101227.16;;;0.21;74.85
69879;BME280;57161;43.136;24.706;2023-02-13T04:53:46;101224.88;;;0.16;74.92
69879;BME280;57161;43.136;24.706;2023-02-13T04:56:11;101205.03;;;0.08;74.55
69879;BME280;57161;43.136;24.706;2023-02-13T04:58:40;101233.34;;;0.25;74.65
69879;BME280;57161;43.136;24.706;2023-02-13T05:01:13;101234.56;;;0.24;75.41
69879;BME280;57161;43.136;24.706;2023-02-13T05:03:40;101230.00;;;0.17;76.07
69879;BME280;57161;43.136;24.706;2023-02-13T05:06:05;101193.13;;;-0.05;76.05
69879;BME280;57161;43.136;24.706;2023-02-13T05:08:31;101227.38;;;0.10;76.36
69879;BME280;57161;43.136;24.706;2023-02-13T05:10:57;101226.94;;;0.12;76.27
69879;BME280;57161;43.136;24.706;2023-02-13T05:13:22;101247.69;;;0.16;76.17
69879;BME280;57161;43.136;24.706;2023-02-13T05:15:48;101229.91;;;0.01;76.31
69879;BME280;57161;43.136;24.706;2023-02-13T05:18:13;101244.56;;;0.14;76.15
69879;BME280;57161;43.136;24.706;2023-02-13T05:20:40;101235.34;;;0.05;75.91
69879;BME280;57161;43.136;24.706;2023-02-13T05:23:08;101175.06;;;-0.46;76.29
69879;BME280;57161;43.136;24.706;2023-02-13T05:25:49;101241.09;;;-0.10;76.22
69879;BME280;57161;43.136;24.706;2023-02-13T05:28:16;101237.50;;;-0.07;76.49
69879;BME280;57161;43.136;24.706;2023-02-13T05:31:00;101228.22;;;-0.13;76.17
69879;BME280;57161;43.136;24.706;2023-02-13T05:33:27;101236.88;;;-0.14;76.28
69879;BME280;57161;43.136;24.706;2023-02-13T05:35:53;101197.91;;;-0.52;76.53
69879;BME280;57161;43.136;24.706;2023-02-13T05:38:18;101252.22;;;-0.17;76.56
69879;BME280;57161;43.136;24.706;2023-02-13T05:40:45;101237.56;;;-0.30;76.67
69879;BME280;57161;43.136;24.706;2023-02-13T05:43:10;101203.53;;;-0.59;76.79
69879;BME280;57161;43.136;24.706;2023-02-13T05:45:36;101253.56;;;-0.25;76.83
69879;BME280;57161;43.136;24.706;2023-02-13T05:48:01;101207.41;;;-0.57;76.71
69879;BME280;57161;43.136;24.706;2023-02-13T05:50:27;101224.91;;;-0.47;77.09
69879;BME280;57161;43.136;24.706;2023-02-13T05:52:52;101269.19;;;-0.22;77.13
69879;BME280;57161;43.136;24.706;2023-02-13T05:55:18;101253.19;;;-0.27;76.93
69879;BME280;57161;43.136;24.706;2023-02-13T05:57:43;101238.78;;;-0.35;76.90
69879;BME280;57161;43.136;24.706;2023-02-13T06:00:09;101236.00;;;-0.31;76.74
69879;BME280;57161;43.136;24.706;2023-02-13T06:02:36;101248.41;;;-0.23;76.69
69879;BME280;57161;43.136;24.706;2023-02-13T06:05:01;101264.00;;;-0.16;76.27
69879;BME280;57161;43.136;24.706;2023-02-13T06:07:26;101229.06;;;-0.39;76.51
69879;BME280;57161;43.136;24.706;2023-02-13T06:09:52;101276.75;;;-0.06;76.21
69879;BME280;57161;43.136;24.706;2023-02-13T06:12:17;101268.59;;;-0.10;76.88
69879;BME280;57161;43.136;24.706;2023-02-13T06:14:43;101257.31;;;-0.15;76.45
69879;BME280;57161;43.136;24.706;2023-02-13T06:17:08;101282.13;;;0.01;75.94
69879;BME280;57161;43.136;24.706;2023-02-13T06:19:34;101278.66;;;-0.03;75.79
69879;BME280;57161;43.136;24.706;2023-02-13T06:21:59;101285.84;;;-0.09;75.90
69879;BME280;57161;43.136;24.706;2023-02-13T06:24:25;101256.66;;;-0.23;76.19
69879;BME280;57161;43.136;24.706;2023-02-13T06:26:51;101276.94;;;-0.17;76.06
69879;BME280;57161;43.136;24.706;2023-02-13T06:29:17;101286.78;;;0.04;75.87
69879;BME280;57161;43.136;24.706;2023-02-13T06:31:42;101295.56;;;0.19;75.29
69879;BME280;57161;43.136;24.706;2023-02-13T06:34:08;101257.59;;;0.10;75.22
69879;BME280;57161;43.136;24.706;2023-02-13T06:36:33;101282.34;;;0.30;75.08
69879;BME280;57161;43.136;24.706;2023-02-13T06:38:59;101272.56;;;0.29;74.57
69879;BME280;57161;43.136;24.706;2023-02-13T06:41:24;101277.50;;;0.38;74.61
69879;BME280;57161;43.136;24.706;2023-02-13T06:43:50;101282.41;;;0.46;74.77
69879;BME280;57161;43.136;24.706;2023-02-13T06:46:15;101259.53;;;0.33;74.25
69879;BME280;57161;43.136;24.706;2023-02-13T06:48:41;101286.59;;;0.54;74.34
69879;BME280;57161;43.136;24.706;2023-02-13T06:51:06;101282.97;;;0.57;74.11
69879;BME280;57161;43.136;24.706;2023-02-13T06:53:32;101307.81;;;0.74;73.74
69879;BME280;57161;43.136;24.706;2023-02-13T06:55:57;101293.34;;;0.70;73.66
69879;BME280;57161;43.136;24.706;2023-02-13T06:58:24;101296.22;;;0.63;73.94
69879;BME280;57161;43.136;24.706;2023-02-13T07:00:51;101256.78;;;0.33;73.49
69879;BME280;57161;43.136;24.706;2023-02-13T07:03:17;101271.22;;;0.57;73.85
69879;BME280;57161;43.136;24.706;2023-02-13T07:05:43;101233.75;;;0.43;73.52
69879;BME280;57161;43.136;24.706;2023-02-13T07:08:10;101298.25;;;0.98;73.42
69879;BME280;57161;43.136;24.706;2023-02-13T07:10:40;101294.38;;;1.12;72.52
69879;BME280;57161;43.136;24.706;2023-02-13T07:13:08;101295.25;;;1.25;72.73
69879;BME280;57161;43.136;24.706;2023-02-13T07:15:37;101288.63;;;1.39;72.37
69879;BME280;57161;43.136;24.706;2023-02-13T07:18:03;101288.72;;;1.52;71.61
69879;BME280;57161;43.136;24.706;2023-02-13T07:20:29;101229.78;;;1.16;71.54
69879;BME280;57161;43.136;24.706;2023-02-13T07:22:58;101295.69;;;1.72;71.39
69879;BME280;57161;43.136;24.706;2023-02-13T07:25:24;101235.44;;;1.42;71.00
69879;BME280;57161;43.136;24.706;2023-02-13T07:27:50;101288.34;;;1.98;71.14
69879;BME280;57161;43.136;24.706;2023-02-13T07:30:15;101274.09;;;2.00;70.15
69879;BME280;57161;43.136;24.706;2023-02-13T07:32:41;101301.00;;;2.25;70.15
69879;BME280;57161;43.136;24.706;2023-02-13T07:35:07;101296.06;;;2.32;69.68
69879;BME280;57161;43.136;24.706;2023-02-13T07:37:32;101276.31;;;2.34;69.47
69879;BME280;57161;43.136;24.706;2023-02-13T07:39:58;101290.59;;;2.45;69.14
69879;BME280;57161;43.136;24.706;2023-02-13T07:42:24;101295.94;;;2.65;68.38
69879;BME280;57161;43.136;24.706;2023-02-13T07:44:49;101259.69;;;2.50;68.24
69879;BME280;57161;43.136;24.706;2023-02-13T07:47:15;101249.31;;;2.54;68.27
69879;BME280;57161;43.136;24.706;2023-02-13T07:49:41;101278.19;;;2.91;67.62
69879;BME280;57161;43.136;24.706;2023-02-13T07:52:07;101281.41;;;3.03;67.26
69879;BME280;57161;43.136;24.706;2023-02-13T07:54:32;101261.75;;;3.00;66.97
69879;BME280;57161;43.136;24.706;2023-02-13T07:56:58;101282.63;;;3.27;66.74
69879;BME280;57161;43.136;24.706;2023-02-13T07:59:24;101270.91;;;3.23;66.45
69879;BME280;57161;43.136;24.706;2023-02-13T08:01:49;101271.78;;;3.33;66.65
69879;BME280;57161;43.136;24.706;2023-02-13T08:04:15;101273.72;;;3.57;66.18
69879;BME280;57161;43.136;24.706;2023-02-13T08:06:41;101284.63;;;3.74;65.23
69879;BME280;57161;43.136;24.706;2023-02-13T08:09:07;101248.84;;;3.57;65.42
69879;BME280;57161;43.136;24.706;2023-02-13T08:11:55;101259.38;;;3.84;65.39
69879;BME280;57161;43.136;24.706;2023-02-13T08:14:22;101277.22;;;4.05;64.30
69879;BME280;57161;43.136;24.706;2023-02-13T08:16:48;101271.91;;;4.11;63.47
69879;BME280;57161;43.136;24.706;2023-02-13T08:19:13;101281.56;;;4.28;63.12
69879;BME280;57161;43.136;24.706;2023-02-13T08:21:39;101288.06;;;4.56;62.40
69879;BME280;57161;43.136;24.706;2023-02-13T08:24:05;101280.88;;;4.68;62.20
69879;BME280;57161;43.136;24.706;2023-02-13T08:26:32;101287.44;;;4.83;61.70
69879;BME280;57161;43.136;24.706;2023-02-13T08:28:58;101281.97;;;4.92;61.25
69879;BME280;57161;43.136;24.706;2023-02-13T08:31:23;101286.50;;;5.08;61.16
69879;BME280;57161;43.136;24.706;2023-02-13T08:33:49;101282.81;;;5.20;60.30
69879;BME280;57161;43.136;24.706;2023-02-13T08:36:14;101279.31;;;5.29;60.42
69879;BME280;57161;43.136;24.706;2023-02-13T08:38:40;101280.75;;;5.42;60.51
69879;BME280;57161;43.136;24.706;2023-02-13T08:41:05;101257.69;;;5.55;59.84
69879;BME280;57161;43.136;24.706;2023-02-13T08:43:31;101270.94;;;5.69;59.59
69879;BME280;57161;43.136;24.706;2023-02-13T08:45:57;101273.56;;;5.72;59.52
69879;BME280;57161;43.136;24.706;2023-02-13T08:48:24;101266.31;;;5.84;59.29
69879;BME280;57161;43.136;24.706;2023-02-13T08:50:49;101263.91;;;5.95;59.09
69879;BME280;57161;43.136;24.706;2023-02-13T08:53:15;101266.69;;;6.05;58.70
69879;BME280;57161;43.136;24.706;2023-02-13T08:55:40;101264.50;;;6.27;58.86
69879;BME280;57161;43.136;24.706;2023-02-13T08:58:06;101275.59;;;6.45;57.81
69879;BME280;57161;43.136;24.706;2023-02-13T09:00:31;101273.44;;;6.40;56.95
69879;BME280;57161;43.136;24.706;2023-02-13T09:03:01;101242.19;;;6.03;57.80
69879;BME280;57161;43.136;24.706;2023-02-13T09:05:27;101271.94;;;6.21;58.26
69879;BME280;57161;43.136;24.706;2023-02-13T09:07:53;101274.22;;;6.31;58.09
69879;BME280;57161;43.136;24.706;2023-02-13T09:10:18;101272.81;;;6.45;57.43
69879;BME280;57161;43.136;24.706;2023-02-13T09:12:51;101282.09;;;6.42;57.69
69879;BME280;57161;43.136;24.706;2023-02-13T09:15:16;101265.88;;;6.31;58.01
69879;BME280;57161;43.136;24.706;2023-02-13T09:17:42;101257.25;;;6.29;57.67
69879;BME280;57161;43.136;24.706;2023-02-13T09:20:08;101265.72;;;6.53;57.92
69879;BME280;57161;43.136;24.706;2023-02-13T09:22:33;101273.41;;;6.49;57.70
69879;BME280;57161;43.136;24.706;2023-02-13T09:24:59;101255.34;;;6.63;57.55
69879;BME280;57161;43.136;24.706;2023-02-13T09:27:28;101256.25;;;6.69;57.70
69879;BME280;57161;43.136;24.706;2023-02-13T09:29:54;101261.16;;;6.83;56.76
69879;BME280;57161;43.136;24.706;2023-02-13T09:32:20;101240.97;;;6.74;57.35
69879;BME280;57161;43.136;24.706;2023-02-13T09:34:45;101253.00;;;6.71;56.29
69879;BME280;57161;43.136;24.706;2023-02-13T09:37:11;101254.88;;;6.65;56.52
69879;BME280;57161;43.136;24.706;2023-02-13T09:39:37;101246.22;;;6.72;56.28
69879;BME280;57161;43.136;24.706;2023-02-13T09:42:10;101240.19;;;6.73;55.93
69879;BME280;57161;43.136;24.706;2023-02-13T09:44:42;101244.03;;;6.76;56.13
69879;BME280;57161;43.136;24.706;2023-02-13T09:49:52;101219.69;;;6.61;56.36
69879;BME280;57161;43.136;24.706;2023-02-13T09:52:18;101203.19;;;6.67;56.52
69879;BME280;57161;43.136;24.706;2023-02-13T09:54:44;101219.25;;;6.96;55.82
69879;BME280;57161;43.136;24.706;2023-02-13T09:57:18;101223.84;;;7.08;55.79
69879;BME280;57161;43.136;24.706;2023-02-13T10:16:22;101199.03;;;6.96;54.88
69879;BME280;57161;43.136;24.706;2023-02-13T10:21:33;101196.69;;;7.03;55.35
69879;BME280;57161;43.136;24.706;2023-02-13T10:24:11;101185.00;;;6.90;55.07
69879;BME280;57161;43.136;24.706;2023-02-13T10:26:41;101182.56;;;6.83;55.66
69879;BME280;57161;43.136;24.706;2023-02-13T10:32:07;101181.41;;;6.99;55.17
69879;BME280;57161;43.136;24.706;2023-02-13T10:34:41;101187.03;;;7.13;54.55
69879;BME280;57161;43.136;24.706;2023-02-13T10:37:13;101179.47;;;7.14;54.99
69879;BME280;57161;43.136;24.706;2023-02-13T10:39:40;101184.22;;;7.22;55.74
69879;BME280;57161;43.136;24.706;2023-02-13T10:45:08;101173.25;;;7.43;54.42
69879;BME280;57161;43.136;24.706;2023-02-13T10:50:16;101164.38;;;7.30;54.98
69879;BME280;57161;43.136;24.706;2023-02-13T10:55:51;101161.38;;;7.42;54.15
69879;BME280;57161;43.136;24.706;2023-02-13T10:58:49;101157.16;;;7.47;54.97
69879;BME280;57161;43.136;24.706;2023-02-13T11:02:13;101148.66;;;7.50;53.99
69879;BME280;57161;43.136;24.706;2023-02-13T11:04:10;101150.47;;;7.53;53.71
69879;BME280;57161;43.136;24.706;2023-02-13T11:06:41;101128.94;;;7.39;54.14
69879;BME280;57161;43.136;24.706;2023-02-13T11:09:07;101141.84;;;7.51;53.99
69879;BME280;57161;43.136;24.706;2023-02-13T11:11:39;101143.66;;;7.55;53.22
69879;BME280;57161;43.136;24.706;2023-02-13T11:16:48;101138.69;;;7.73;53.77
69879;BME280;57161;43.136;24.706;2023-02-13T11:19:45;101134.00;;;7.65;53.79
69879;BME280;57161;43.136;24.706;2023-02-13T11:22:29;101120.78;;;7.89;53.82
69879;BME280;57161;43.136;24.706;2023-02-13T11:25:00;101118.69;;;7.99;52.70
69879;BME280;57161;43.136;24.706;2023-02-13T11:27:31;101132.28;;;8.11;52.63
69879;BME280;57161;43.136;24.706;2023-02-13T11:29:59;101126.63;;;8.06;52.63
69879;BME280;57161;43.136;24.706;2023-02-13T11:32:30;101128.09;;;8.01;52.09
69879;BME280;57161;43.136;24.706;2023-02-13T11:34:56;101130.75;;;7.81;52.81
69879;BME280;57161;43.136;24.706;2023-02-13T11:39:51;101121.06;;;7.91;53.35
69879;BME280;57161;43.136;24.706;2023-02-13T11:42:31;101112.91;;;8.02;51.90
69879;BME280;57161;43.136;24.706;2023-02-13T11:45:22;101109.84;;;8.15;52.22
69879;BME280;57161;43.136;24.706;2023-02-13T11:47:49;101101.56;;;8.06;52.31
69879;BME280;57161;43.136;24.706;2023-02-13T11:50:27;101097.25;;;8.05;52.29
69879;BME280;57161;43.136;24.706;2023-02-13T11:52:54;101097.53;;;8.22;52.18
69879;BME280;57161;43.136;24.706;2023-02-13T11:55:28;101095.59;;;8.28;50.48
69879;BME280;57161;43.136;24.706;2023-02-13T11:58:01;101096.97;;;8.18;51.81
69879;BME280;57161;43.136;24.706;2023-02-13T12:00:36;101096.28;;;8.08;51.45
69879;BME280;57161;43.136;24.706;2023-02-13T12:08:24;101084.66;;;8.09;51.68
69879;BME280;57161;43.136;24.706;2023-02-13T12:10:50;101077.41;;;7.97;52.07
69879;BME280;57161;43.136;24.706;2023-02-13T12:15:56;101074.50;;;8.36;51.60
69879;BME280;57161;43.136;24.706;2023-02-13T12:18:32;101068.16;;;8.35;53.31
69879;BME280;57161;43.136;24.706;2023-02-13T12:26:56;101064.88;;;8.22;54.79
69879;BME280;57161;43.136;24.706;2023-02-13T12:29:38;101053.47;;;8.20;54.28
69879;BME280;57161;43.136;24.706;2023-02-13T12:40:41;101050.19;;;8.36;50.74
69879;BME280;57161;43.136;24.706;2023-02-13T12:46:33;101045.41;;;8.57;50.59
69879;BME280;57161;43.136;24.706;2023-02-13T12:54:59;101040.97;;;8.86;53.27
69879;BME280;57161;43.136;24.706;2023-02-13T12:57:54;101025.31;;;8.68;49.40
69879;BME280;57161;43.136;24.706;2023-02-13T13:12:04;101031.91;;;8.70;53.44
69879;BME280;57161;43.136;24.706;2023-02-13T13:17:43;101023.97;;;8.63;52.93
69879;BME280;57161;43.136;24.706;2023-02-13T13:22:44;101025.56;;;8.70;52.49
69879;BME280;57161;43.136;24.706;2023-02-13T13:25:47;101023.00;;;8.87;52.77
69879;BME280;57161;43.136;24.706;2023-02-13T13:28:17;101008.72;;;8.79;52.48
69879;BME280;57161;43.136;24.706;2023-02-13T13:30:44;101020.66;;;8.80;52.62
69879;BME280;57161;43.136;24.706;2023-02-13T13:33:19;101004.09;;;8.76;52.88
69879;BME280;57161;43.136;24.706;2023-02-13T13:36:02;101006.59;;;8.94;52.45
69879;BME280;57161;43.136;24.706;2023-02-13T13:46:58;100995.59;;;9.06;52.17
69879;BME280;57161;43.136;24.706;2023-02-13T13:52:21;100988.16;;;9.23;51.10
69879;BME280;57161;43.136;24.706;2023-02-13T13:54:47;100987.75;;;9.30;51.05
69879;BME280;57161;43.136;24.706;2023-02-13T13:57:24;100985.09;;;9.21;51.19
69879;BME280;57161;43.136;24.706;2023-02-13T14:05:20;100971.66;;;9.45;50.78
69879;BME280;57161;43.136;24.706;2023-02-13T14:07:49;100947.47;;;9.37;50.70
69879;BME280;57161;43.136;24.706;2023-02-13T14:12:47;100958.84;;;9.33;51.25
69879;BME280;57161;43.136;24.706;2023-02-13T14:15:48;100926.72;;;9.12;51.33
69879;BME280;57161;43.136;24.706;2023-02-13T14:20:50;100904.41;;;8.86;50.12
69879;BME280;57161;43.136;24.706;2023-02-13T14:23:33;100934.91;;;9.21;50.02
69879;BME280;57161;43.136;24.706;2023-02-13T14:36:48;100945.41;;;9.06;50.33
69879;BME280;57161;43.136;24.706;2023-02-13T14:39:29;100949.13;;;8.97;50.22
69879;BME280;57161;43.136;24.706;2023-02-13T14:42:02;100945.28;;;8.94;50.23
69879;BME280;57161;43.136;24.706;2023-02-13T14:44:48;100946.06;;;8.95;50.44
69879;BME280;57161;43.136;24.706;2023-02-13T14:47:34;100947.03;;;8.92;50.83
69879;BME280;57161;43.136;24.706;2023-02-13T14:50:05;100938.94;;;8.94;50.80
69879;BME280;57161;43.136;24.706;2023-02-13T14:52:36;100933.81;;;8.87;50.63
69879;BME280;57161;43.136;24.706;2023-02-13T14:55:16;100918.91;;;8.69;50.60
69879;BME280;57161;43.136;24.706;2023-02-13T14:57:50;100921.56;;;8.58;51.17
69879;BME280;57161;43.136;24.706;2023-02-13T15:00:32;100927.06;;;8.53;51.87
69879;BME280;57161;43.136;24.706;2023-02-13T15:03:28;100917.41;;;8.48;52.33
69879;BME280;57161;43.136;24.706;2023-02-13T15:05:58;100929.03;;;8.47;52.22
69879;BME280;57161;43.136;24.706;2023-02-13T15:08:30;100884.22;;;8.09;52.46
69879;BME280;57161;43.136;24.706;2023-02-13T15:10:56;100918.41;;;8.30;53.07
69879;BME280;57161;43.136;24.706;2023-02-13T15:15:58;100918.97;;;8.14;53.65
69879;BME280;57161;43.136;24.706;2023-02-13T15:18:28;100918.19;;;8.13;53.63
69879;BME280;57161;43.136;24.706;2023-02-13T15:20:55;100899.16;;;7.92;53.94
69879;BME280;57161;43.136;24.706;2023-02-13T15:23:27;100913.50;;;8.05;54.44
69879;BME280;57161;43.136;24.706;2023-02-13T15:28:23;100920.06;;;8.02;55.23
69879;BME280;57161;43.136;24.706;2023-02-13T15:30:59;100928.25;;;7.91;55.90
69879;BME280;57161;43.136;24.706;2023-02-13T15:33:32;100924.63;;;7.85;56.77
69879;BME280;57161;43.136;24.706;2023-02-13T15:36:01;100936.34;;;7.74;57.19
69879;BME280;57161;43.136;24.706;2023-02-13T15:38:34;100928.13;;;7.65;57.46
69879;BME280;57161;43.136;24.706;2023-02-13T15:41:40;100934.47;;;7.50;57.89
69879;BME280;57161;43.136;24.706;2023-02-13T15:43:58;100924.19;;;7.27;58.46
69879;BME280;57161;43.136;24.706;2023-02-13T15:46:25;100931.78;;;7.27;58.93
69879;BME280;57161;43.136;24.706;2023-02-13T15:48:52;100927.38;;;7.20;58.68
69879;BME280;57161;43.136;24.706;2023-02-13T15:51:24;100935.31;;;7.12;59.08